Time;durP1;ratioP1;P1;durP2;ratioP2;P2;SDS_P1;SDS_P2;PMS_P1;PMS_P2;Temp;Humidity;BMP_temperature;BMP_pressure;BME280_temperature;BME280_humidity;BME280_pressure;Samples;Min_cycle;Max_cycle;Signal;HPM_P1;HPM_P2
2022/07/14 00:01:48;;;;;;;13.15;4.07;;;;;;;16.33;82.03;102017.09;5011558;28;20060;-76
2022/07/14 00:04:13;;;;;;;12.02;3.60;;;;;;;16.35;81.84;102017.81;5027550;28;20071;-76
2022/07/14 00:06:39;;;;;;;9.70;3.30;;;;;;;16.38;81.46;102017.56;5010886;28;20097;-75
2022/07/14 00:09:04;;;;;;;12.30;3.85;;;;;;;16.34;81.54;102027.59;5017540;28;20036;-75
2022/07/14 00:11:29;;;;;;;12.32;4.65;;;;;;;16.26;81.56;102024.72;5019052;28;20021;-76
2022/07/14 00:13:56;;;;;;;14.32;5.35;;;;;;;16.18;82.41;102012.06;5013618;28;20487;-75
2022/07/14 00:16:21;;;;;;;13.10;4.57;;;;;;;16.16;82.87;102006.03;5009090;28;20494;-75
2022/07/14 00:18:47;;;;;;;16.08;5.40;;;;;;;16.13;83.37;101994.78;5014029;28;20009;-75
2022/07/14 00:21:13;;;;;;;20.85;4.85;;;;;;;16.13;83.80;101987.69;5012568;28;20022;-75
2022/07/14 00:23:40;;;;;;;13.13;4.18;;;;;;;16.19;83.46;101981.88;5009275;28;20064;-75
2022/07/14 00:26:05;;;;;;;12.80;4.18;;;;;;;16.12;83.48;101979.84;5012636;28;20210;-76
2022/07/14 00:28:31;;;;;;;14.38;4.30;;;;;;;16.09;83.58;101978.25;5008958;28;20113;-76
2022/07/14 00:30:58;;;;;;;13.80;4.50;;;;;;;16.13;83.51;101989.50;5008903;28;20485;-76
2022/07/14 00:33:23;;;;;;;13.20;4.50;;;;;;;16.04;83.26;102003.50;5008594;28;20049;-77
2022/07/14 00:35:48;;;;;;;13.02;4.20;;;;;;;15.95;83.93;102015.66;5009535;28;20022;-77
2022/07/14 00:38:14;;;;;;;15.45;4.53;;;;;;;15.92;84.10;102007.94;5035514;28;20050;-77
2022/07/14 00:40:39;;;;;;;16.42;4.78;;;;;;;15.88;84.36;102009.13;5031269;28;20025;-76
2022/07/14 00:43:04;;;;;;;13.43;4.10;;;;;;;15.88;84.51;102006.47;5030281;28;20305;-76
2022/07/14 00:45:30;;;;;;;18.05;4.82;;;;;;;15.88;84.88;102006.47;5030577;28;20179;-76
2022/07/14 00:47:55;;;;;;;15.82;4.63;;;;;;;15.93;84.60;102006.97;5033298;28;20029;-77
2022/07/14 00:50:21;;;;;;;18.13;5.25;;;;;;;15.73;85.35;101999.72;5031281;28;20029;-77
2022/07/14 00:52:48;;;;;;;13.55;4.70;;;;;;;15.78;85.02;102000.22;5034053;28;20046;-77
2022/07/14 00:55:15;;;;;;;15.00;4.00;;;;;;;15.76;85.37;102000.31;5035309;28;20026;-77
2022/07/14 00:57:41;;;;;;;16.45;4.55;;;;;;;15.71;85.63;102004.31;5031547;28;20014;-75
2022/07/14 01:00:10;;;;;;;13.73;4.55;;;;;;;15.70;85.46;102013.22;5039260;28;20083;-73
2022/07/14 01:02:36;;;;;;;21.25;4.68;;;;;;;15.72;85.78;102001.53;5032193;28;20053;-74
2022/07/14 01:05:02;;;;;;;17.50;4.63;;;;;;;15.69;85.81;102004.41;5043066;28;20013;-75
2022/07/14 01:07:27;;;;;;;20.48;4.95;;;;;;;15.73;86.13;102010.34;5030795;28;20034;-75
2022/07/14 01:09:52;;;;;;;15.80;4.72;;;;;;;15.73;85.77;102016.47;5032178;28;20093;-74
2022/07/14 01:12:18;;;;;;;13.90;4.35;;;;;;;15.72;85.52;102027.22;5045671;28;20028;-74
2022/07/14 01:14:44;;;;;;;15.60;4.40;;;;;;;15.78;85.36;102024.09;5031568;28;20037;-74
2022/07/14 01:17:10;;;;;;;14.32;4.45;;;;;;;15.75;85.71;102027.81;5031614;28;20026;-75
2022/07/14 01:19:36;;;;;;;15.60;4.65;;;;;;;15.76;85.71;102026.00;5030317;28;20045;-75
2022/07/14 01:22:02;;;;;;;14.27;4.55;;;;;;;15.78;85.66;102034.69;5029787;28;20025;-74
2022/07/14 01:24:28;;;;;;;12.25;4.13;;;;;;;15.86;85.53;102037.59;5031562;28;20038;-77
2022/07/14 01:26:54;;;;;;;16.90;4.93;;;;;;;15.80;85.26;102024.81;5032293;28;20022;-75
2022/07/14 01:29:19;;;;;;;12.48;4.22;;;;;;;15.77;85.70;102023.25;5033233;28;20013;-76
2022/07/14 01:31:48;;;;;;;11.05;4.03;;;;;;;15.80;85.28;102022.16;5034554;28;20075;-75
2022/07/14 01:34:13;;;;;;;17.17;4.43;;;;;;;15.79;85.90;102036.41;5033563;28;20116;-74
2022/07/14 01:36:39;;;;;;;12.25;3.88;;;;;;;15.82;85.61;102036.16;5039190;28;20033;-75
2022/07/14 01:39:05;;;;;;;12.82;4.30;;;;;;;15.79;85.35;102037.25;5014807;28;20023;-76
2022/07/14 01:41:30;;;;;;;13.77;4.57;;;;;;;15.79;85.96;102036.41;5028352;28;20033;-76
2022/07/14 01:43:58;;;;;;;15.30;4.57;;;;;;;15.79;85.79;102031.09;5017526;28;20029;-75
2022/07/14 01:46:24;;;;;;;18.35;4.53;;;;;;;15.70;86.54;102027.34;5026484;28;20486;-75
2022/07/14 01:48:49;;;;;;;17.75;4.68;;;;;;;15.71;86.08;102017.56;5028396;28;20030;-75
2022/07/14 01:51:15;;;;;;;20.15;4.90;;;;;;;15.64;86.45;102023.34;5026724;28;20045;-74
2022/07/14 01:53:44;;;;;;;14.80;4.70;;;;;;;15.64;nan;102026.00;5020149;28;20152;-76
2022/07/14 01:56:10;;;;;;;15.27;4.53;;;;;;;15.60;86.69;102018.38;5029423;28;20080;-76
2022/07/14 01:58:36;;;;;;;15.82;4.68;;;;;;;15.64;86.36;102011.91;5030696;28;20390;-75
2022/07/14 02:03:45;;;;;;;15.20;4.10;;;;;;;15.61;86.46;102009.47;5035806;28;20095;-76
2022/07/14 02:06:12;;;;;;;19.70;4.70;;;;;;;15.61;86.84;102006.81;5032202;28;20025;-75
2022/07/14 02:08:37;;;;;;;14.48;4.32;;;;;;;15.60;86.51;102016.56;5026046;28;20036;-75
2022/07/14 02:13:47;;;;;;;17.95;4.82;;;;;;;15.45;86.61;102017.72;5034724;28;20053;-75
2022/07/14 02:16:12;;;;;;;14.07;4.57;;;;;;;15.45;86.60;102012.41;5034336;28;20021;-75
2022/07/14 02:18:37;;;;;;;15.80;4.80;;;;;;;15.42;86.57;102011.78;5032579;28;20037;-74
2022/07/14 02:21:03;;;;;;;21.00;4.72;;;;;;;15.36;86.96;102007.78;5037611;28;20059;-75
2022/07/14 02:23:29;;;;;;;14.20;4.55;;;;;;;15.35;86.71;102016.72;5041781;28;20036;-76
2022/07/14 02:25:54;;;;;;;16.52;5.15;;;;;;;15.31;87.37;102020.56;5034776;28;20030;-76
2022/07/14 02:28:19;;;;;;;15.77;4.80;;;;;;;15.26;87.37;102020.91;5051923;28;20041;-75
2022/07/14 02:30:46;;;;;;;16.90;4.90;;;;;;;15.26;87.13;102028.03;5038129;28;20048;-75
2022/07/14 02:33:11;;;;;;;18.17;5.18;;;;;;;15.22;87.24;102016.81;5042863;28;20040;-75
2022/07/14 02:35:36;;;;;;;16.20;4.53;;;;;;;15.22;87.34;102016.81;5033515;28;20030;-74
2022/07/14 02:38:02;;;;;;;12.85;4.68;;;;;;;15.19;87.28;102000.25;5026387;28;20078;-75
2022/07/14 02:40:28;;;;;;;11.38;4.30;;;;;;;15.10;87.21;102007.09;5030401;28;20026;-75
2022/07/14 02:42:53;;;;;;;15.38;4.30;;;;;;;15.09;87.72;101999.25;5035144;28;20022;-76
2022/07/14 02:45:19;;;;;;;18.85;4.95;;;;;;;15.00;87.93;102003.44;5041853;28;20033;-76
2022/07/14 02:47:44;;;;;;;17.13;4.65;;;;;;;14.98;88.08;101994.75;5038042;28;20036;-74
2022/07/14 02:50:12;;;;;;;17.70;5.03;;;;;;;14.90;88.22;101989.19;5048284;28;20058;-74
2022/07/14 02:52:38;;;;;;;16.30;4.75;;;;;;;14.90;88.31;101984.72;5034051;28;20050;-78
2022/07/14 02:55:06;;;;;;;16.90;5.20;;;;;;;14.90;88.16;101987.38;5022081;28;20465;-75
2022/07/14 02:57:31;;;;;;;20.77;4.82;;;;;;;14.92;88.18;101989.91;5019761;28;20026;-75
2022/07/14 02:59:59;;;;;;;20.17;5.30;;;;;;;14.84;88.54;101984.34;5018684;28;20037;-75
2022/07/14 03:02:25;;;;;;;21.70;5.40;;;;;;;14.76;88.78;101992.81;5017050;28;20018;-75
2022/07/14 03:04:55;;;;;;;19.10;5.50;;;;;;;14.68;89.18;101995.19;5026347;28;20037;-76
2022/07/14 03:07:22;;;;;;;19.08;4.72;;;;;;;14.64;89.10;101991.94;5015432;28;20032;-76
2022/07/14 03:09:48;;;;;;;26.85;5.55;;;;;;;14.62;89.30;101985.06;5016984;28;20038;-74
2022/07/14 03:12:18;;;;;;;16.85;5.65;;;;;;;14.57;89.26;101982.75;5031473;28;20032;-75
2022/07/14 03:14:43;;;;;;;18.58;5.15;;;;;;;14.49;89.73;101978.97;5021249;28;20025;-74
2022/07/14 03:17:09;;;;;;;20.65;5.55;;;;;;;14.46;89.87;101969.44;5021228;28;20030;-74
2022/07/14 03:19:34;;;;;;;15.35;5.32;;;;;;;14.43;90.21;101968.81;5026931;28;20072;-77
2022/07/14 03:22:00;;;;;;;20.58;5.60;;;;;;;14.43;90.22;101961.72;5035469;28;20079;-77
2022/07/14 03:24:25;;;;;;;15.15;5.60;;;;;;;14.46;90.17;101963.28;5022810;28;20029;-76
2022/07/14 03:26:50;;;;;;;14.30;5.78;;;;;;;14.40;90.59;101964.53;5016660;28;20026;-75
2022/07/14 03:29:17;;;;;;;19.02;5.63;;;;;;;14.43;90.19;101963.53;5017692;28;20033;-76
2022/07/14 03:31:43;;;;;;;15.75;5.25;;;;;;;14.39;89.86;101957.53;5016975;28;20026;-75
2022/07/14 03:34:08;;;;;;;15.82;5.25;;;;;;;14.39;89.79;101958.38;5016163;28;20048;-76
2022/07/14 03:36:33;;;;;;;21.88;6.07;;;;;;;14.39;89.81;101963.69;5029009;28;20034;-75
2022/07/14 03:38:59;;;;;;;16.42;5.38;;;;;;;14.31;89.76;101960.75;5016922;28;20405;-75
2022/07/14 03:41:25;;;;;;;18.15;5.82;;;;;;;14.34;89.96;101965.81;5010225;28;20109;-76
2022/07/14 03:43:50;;;;;;;14.90;5.00;;;;;;;14.36;89.34;101963.06;5017403;28;20470;-75
2022/07/14 03:46:19;;;;;;;22.10;5.50;;;;;;;14.28;89.46;101963.63;5009780;28;20035;-77
2022/07/14 03:48:44;;;;;;;14.32;5.13;;;;;;;14.26;89.20;101968.19;5019104;28;20030;-75
2022/07/14 03:51:09;;;;;;;19.98;5.40;;;;;;;14.21;89.39;101975.59;5019508;28;20052;-75
2022/07/14 03:53:34;;;;;;;13.27;5.43;;;;;;;14.22;89.39;101981.75;5015549;28;20190;-77
2022/07/14 03:56:00;;;;;;;15.90;5.43;;;;;;;14.22;89.13;101982.59;5017255;28;20148;-75
2022/07/14 03:58:27;;;;;;;14.77;5.65;;;;;;;14.18;89.11;101991.72;5010948;28;20061;-75
2022/07/14 04:00:53;;;;;;;14.75;5.43;;;;;;;14.13;89.88;101993.00;5011676;28;20037;-76
2022/07/14 04:03:19;;;;;;;17.88;5.88;;;;;;;14.07;90.95;101995.13;5010011;28;20033;-76
2022/07/14 04:05:45;;;;;;;16.65;6.53;;;;;;;14.15;90.47;101993.72;5014000;28;20037;-75
2022/07/14 04:08:12;;;;;;;17.25;5.38;;;;;;;14.11;90.40;102001.03;5012970;28;20029;-77
2022/07/14 04:10:37;;;;;;;18.23;6.30;;;;;;;14.16;90.80;101998.06;5017088;28;20044;-75
2022/07/14 04:13:03;;;;;;;22.58;6.03;;;;;;;14.27;91.19;101998.13;5023385;28;20038;-75
2022/07/14 04:15:30;;;;;;;16.92;5.55;;;;;;;14.78;88.89;101993.56;5029149;28;20030;-75
2022/07/14 04:17:56;;;;;;;14.32;5.05;;;;;;;15.34;85.69;101988.50;5017774;28;20040;-76
2022/07/14 04:20:22;;;;;;;14.70;4.88;;;;;;;15.99;82.32;101985.25;5025911;28;20445;-77
2022/07/14 04:22:48;;;;;;;17.42;4.97;;;;;;;16.43;79.56;101976.41;5025657;28;20021;-76
2022/07/14 04:25:18;;;;;;;14.82;5.13;;;;;;;16.72;78.54;101984.69;5020494;28;20034;-76
2022/07/14 04:27:44;;;;;;;13.90;4.78;;;;;;;16.64;78.00;101984.44;5017754;28;20029;-76
2022/07/14 04:30:19;;;;;;;11.57;4.80;;;;;;;16.53;78.86;101979.19;5020085;28;20029;-76
2022/07/14 04:32:44;;;;;;;11.75;4.25;;;;;;;16.08;79.43;101973.91;5013698;28;20085;-75
2022/07/14 04:35:10;;;;;;;12.57;4.38;;;;;;;15.90;80.52;101985.97;5018804;28;20018;-75
2022/07/14 04:37:35;;;;;;;11.52;4.88;;;;;;;15.92;80.89;101989.34;5032348;28;20044;-77
2022/07/14 04:40:02;;;;;;;16.65;5.47;;;;;;;15.58;82.64;101985.81;5017193;28;20026;-76
2022/07/14 04:42:27;;;;;;;18.10;5.90;;;;;;;15.47;83.61;101981.28;5011635;28;20436;-75
2022/07/14 04:44:53;;;;;;;15.98;5.57;;;;;;;15.40;83.80;101974.78;5021934;28;20029;-75
2022/07/14 04:47:18;;;;;;;19.58;6.45;;;;;;;15.32;84.60;101969.22;5013004;28;20085;-75
2022/07/14 04:52:27;;;;;;;18.83;6.72;;;;;;;15.24;85.81;101958.34;5008374;28;20056;-75
2022/07/14 04:54:53;;;;;;;18.58;6.05;;;;;;;15.28;86.06;101967.75;5010413;28;20018;-76
2022/07/14 04:57:19;;;;;;;21.25;6.80;;;;;;;15.17;85.81;101975.66;5011416;28;20034;-76
2022/07/14 04:59:45;;;;;;;24.70;6.53;;;;;;;15.17;85.80;101970.34;5010899;28;20084;-75
2022/07/14 05:02:11;;;;;;;20.60;6.85;;;;;;;15.18;86.24;101975.53;5012832;28;20026;-76
2022/07/14 05:04:36;;;;;;;23.55;7.72;;;;;;;15.12;86.30;101983.13;5012442;28;20030;-76
2022/07/14 05:07:02;;;;;;;19.48;6.68;;;;;;;15.09;86.42;101994.78;5012889;28;20168;-76
2022/07/14 05:09:32;;;;;;;22.38;7.10;;;;;;;15.09;86.63;101988.66;5011038;28;20052;-75
2022/07/14 05:11:58;;;;;;;22.25;6.90;;;;;;;15.10;86.67;101990.34;5014512;28;20026;-75
2022/07/14 05:14:23;;;;;;;35.30;8.43;;;;;;;15.09;86.79;102005.41;5016948;28;20045;-75
2022/07/14 05:16:48;;;;;;;27.98;7.32;;;;;;;15.13;87.31;102006.00;5012912;28;20041;-77
2022/07/14 05:19:17;;;;;;;22.42;7.47;;;;;;;15.21;86.76;101998.31;5012390;28;20074;-75
2022/07/14 05:21:44;;;;;;;18.95;6.95;;;;;;;15.19;86.18;101985.19;5011153;28;20478;-75
2022/07/14 05:24:10;;;;;;;27.33;6.00;;;;;;;15.07;85.16;101985.28;5012821;28;20514;-75
2022/07/14 05:26:36;;;;;;;17.65;5.85;;;;;;;15.13;85.55;101979.50;5012128;28;20416;-75
2022/07/14 05:29:02;;;;;;;22.73;6.38;;;;;;;15.12;85.23;101988.41;5012750;28;20018;-77
2022/07/14 05:31:27;;;;;;;23.98;6.75;;;;;;;15.19;85.57;101985.19;5015761;28;20021;-75
2022/07/14 05:33:53;;;;;;;24.88;7.28;;;;;;;15.14;84.65;101992.66;5016819;28;20034;-75
2022/07/14 05:36:19;;;;;;;22.02;6.68;;;;;;;15.22;84.77;101989.44;5019089;28;20040;-75
2022/07/14 05:38:44;;;;;;;19.58;6.53;;;;;;;15.27;85.18;101987.28;5021529;28;20025;-75
2022/07/14 05:41:10;;;;;;;18.30;6.50;;;;;;;15.21;84.29;101977.13;5011398;28;20117;-77
2022/07/14 05:43:35;;;;;;;23.55;7.32;;;;;;;15.22;83.99;101978.84;5012184;28;20551;-76
2022/07/14 05:46:09;;;;;;;26.00;6.70;;;;;;;15.25;83.92;101994.50;5015169;28;20446;-77
2022/07/14 05:48:37;;;;;;;19.75;7.10;;;;;;;15.23;84.02;101996.44;5019458;28;20034;-76
2022/07/14 05:51:07;;;;;;;21.42;6.85;;;;;;;15.27;84.60;101987.28;5019611;28;20109;-76
2022/07/14 05:53:33;;;;;;;22.40;7.55;;;;;;;15.35;84.53;101990.19;5023787;28;20021;-76
2022/07/14 05:55:59;;;;;;;20.13;6.85;;;;;;;15.47;84.12;101991.91;5010749;28;20044;-76
2022/07/14 05:58:24;;;;;;;22.33;7.28;;;;;;;15.50;83.66;101982.88;5013186;28;20128;-76
2022/07/14 06:00:49;;;;;;;22.33;6.40;;;;;;;15.57;83.07;101992.88;5010338;28;20532;-76
2022/07/14 06:03:19;;;;;;;17.75;6.20;;;;;;;15.60;82.53;101995.34;5011939;28;20022;-76
2022/07/14 06:05:48;;;;;;;23.08;6.35;;;;;;;15.65;82.75;101990.53;5018801;28;20482;-75
2022/07/14 06:08:15;;;;;;;24.33;6.25;;;;;;;15.64;82.30;101991.50;5011538;28;20029;-75
2022/07/14 06:10:41;;;;;;;22.52;6.22;;;;;;;15.75;82.18;101989.81;5010177;28;20486;-77
2022/07/14 06:13:07;;;;;;;21.75;6.05;;;;;;;15.84;81.89;101983.81;5009025;28;20054;-77
2022/07/14 06:15:32;;;;;;;23.10;6.95;;;;;;;15.80;82.06;101985.84;5010935;28;20030;-77
2022/07/14 06:17:57;;;;;;;21.58;6.20;;;;;;;15.86;81.32;101995.13;5009427;28;20033;-76
2022/07/14 06:20:23;;;;;;;17.60;6.18;;;;;;;15.86;80.97;101987.19;5016351;28;20025;-78
2022/07/14 06:22:49;;;;;;;20.45;6.10;;;;;;;15.91;81.14;101977.03;5015596;28;20025;-78
2022/07/14 06:25:14;;;;;;;25.48;6.72;;;;;;;16.00;81.24;101976.31;5009678;28;20405;-75
2022/07/14 06:27:40;;;;;;;22.00;5.65;;;;;;;16.10;80.71;101976.47;5015891;28;20017;-76
2022/07/14 06:30:07;;;;;;;20.27;5.38;;;;;;;16.15;79.38;101984.91;5018776;28;20044;-75
2022/07/14 06:32:33;;;;;;;22.63;6.45;;;;;;;16.18;79.56;101985.50;5021008;28;20045;-77
2022/07/14 06:34:58;;;;;;;17.23;5.03;;;;;;;16.21;78.52;101989.72;5011824;28;20140;-75
2022/07/14 06:37:24;;;;;;;19.55;4.88;;;;;;;16.28;78.75;101997.06;5021336;28;20021;-76
2022/07/14 06:39:50;;;;;;;19.10;4.97;;;;;;;16.36;78.16;101987.63;5012067;28;20478;-77
2022/07/14 06:42:19;;;;;;;21.85;5.78;;;;;;;16.34;77.68;101984.25;5009600;28;20033;-77
2022/07/14 06:44:44;;;;;;;18.27;5.15;;;;;;;16.45;78.96;101987.78;5025103;28;20041;-75
2022/07/14 06:47:09;;;;;;;18.88;5.53;;;;;;;16.52;78.33;101991.63;5020974;28;20061;-75
2022/07/14 06:49:35;;;;;;;17.60;5.95;;;;;;;16.55;77.51;101995.84;5017564;28;20401;-75
2022/07/14 06:52:00;;;;;;;18.27;5.28;;;;;;;16.66;77.60;101995.00;5018002;28;20038;-75
2022/07/14 06:54:26;;;;;;;24.98;6.43;;;;;;;16.70;77.42;101991.94;5019226;28;20159;-77
2022/07/14 06:56:51;;;;;;;18.88;5.47;;;;;;;16.82;76.79;101984.81;5020820;28;20496;-76
2022/07/14 06:59:19;;;;;;;17.52;5.72;;;;;;;16.91;76.61;101992.03;5009845;28;20499;-76
2022/07/14 07:01:48;;;;;;;19.88;5.55;;;;;;;16.99;74.96;101986.06;5016475;28;20052;-75
2022/07/14 07:04:13;;;;;;;20.70;5.60;;;;;;;17.14;75.07;101974.97;5018214;28;20037;-75
2022/07/14 07:06:47;;;;;;;16.38;5.20;;;;;;;17.24;75.51;101980.41;5009190;28;20078;-76
2022/07/14 07:09:14;;;;;;;21.08;6.53;;;;;;;17.31;72.52;101989.53;5010460;28;20083;-76
2022/07/14 07:11:41;;;;;;;17.50;5.28;;;;;;;17.41;71.50;101981.63;5007918;28;20030;-76
2022/07/14 07:14:07;;;;;;;17.60;5.18;;;;;;;17.56;71.82;101985.63;5010986;28;20064;-76
2022/07/14 07:16:32;;;;;;;18.80;5.50;;;;;;;17.76;71.50;101981.31;5008620;28;20042;-75
2022/07/14 07:18:58;;;;;;;17.70;5.30;;;;;;;17.92;70.59;101984.31;5010095;28;20495;-77
2022/07/14 07:21:23;;;;;;;16.13;4.88;;;;;;;18.06;70.06;101978.66;5009232;28;20029;-78
2022/07/14 07:23:49;;;;;;;14.80;5.57;;;;;;;18.15;69.08;101975.19;5009339;28;20160;-79
2022/07/14 07:26:31;;;;;;;18.17;4.95;;;;;;;18.33;67.86;101964.69;5012759;28;20207;-79
2022/07/14 07:28:56;;;;;;;14.25;4.93;;;;;;;18.62;67.84;101964.78;5015058;28;20021;-78
2022/07/14 07:31:22;;;;;;;17.70;4.90;;;;;;;18.84;67.63;101969.03;5009954;28;20390;-77
2022/07/14 07:33:47;;;;;;;13.70;4.40;;;;;;;19.05;66.77;101967.06;5018569;28;20060;-78
2022/07/14 07:36:13;;;;;;;15.65;4.13;;;;;;;19.27;64.96;101971.28;5017811;28;20383;-78
2022/07/14 07:38:38;;;;;;;12.90;4.03;;;;;;;19.26;63.43;101969.59;5012350;28;20133;-75
2022/07/14 07:41:04;;;;;;;12.02;4.20;;;;;;;19.46;62.94;101956.19;5024775;28;20029;-75
2022/07/14 07:43:29;;;;;;;14.52;3.67;;;;;;;19.52;62.43;101947.59;5019970;28;20033;-75
2022/07/14 07:45:55;;;;;;;12.98;3.75;;;;;;;19.55;61.69;101945.50;5020457;28;20022;-76
2022/07/14 07:48:21;;;;;;;11.45;3.35;;;;;;;19.69;61.22;101938.88;5019787;28;20091;-76
2022/07/14 07:50:47;;;;;;;11.38;3.28;;;;;;;19.92;59.11;101947.34;5019309;28;20029;-76
2022/07/14 07:53:12;;;;;;;12.55;3.58;;;;;;;20.14;60.00;101941.63;5027633;28;20041;-79
2022/07/14 07:55:39;;;;;;;12.30;3.70;;;;;;;20.38;59.42;101945.56;5028890;28;20055;-76
2022/07/14 07:58:05;;;;;;;13.45;4.15;;;;;;;20.51;59.04;101941.59;5024492;28;20537;-75
2022/07/14 08:00:31;;;;;;;11.10;3.40;;;;;;;20.51;58.16;101941.59;5012759;28;20450;-76
2022/07/14 08:02:57;;;;;;;9.48;3.22;;;;;;;20.55;58.09;101942.13;5017583;28;20024;-76
2022/07/14 08:05:24;;;;;;;13.13;3.70;;;;;;;20.60;57.18;101935.31;5008933;28;20034;-76
2022/07/14 08:07:50;;;;;;;12.77;3.70;;;;;;;20.85;57.08;101932.88;5009542;28;20037;-76
2022/07/14 08:10:19;;;;;;;13.27;3.20;;;;;;;20.76;56.89;101928.44;5023974;28;20407;-75
2022/07/14 08:12:44;;;;;;;9.27;3.15;;;;;;;21.06;57.33;101924.50;5029607;28;20092;-75
2022/07/14 08:15:11;;;;;;;10.05;3.00;;;;;;;21.26;56.68;101926.88;5029542;28;20053;-76
2022/07/14 08:17:36;;;;;;;15.13;3.67;;;;;;;21.18;55.34;101926.78;5029032;28;20326;-75
2022/07/14 08:20:03;;;;;;;15.75;3.72;;;;;;;21.13;55.50;101926.41;5029833;28;20075;-76
2022/07/14 08:22:29;;;;;;;9.27;2.95;;;;;;;21.23;54.81;101913.81;5028556;28;20022;-75
2022/07/14 08:24:56;;;;;;;15.40;3.30;;;;;;;21.09;53.84;101922.34;5029773;28;20025;-78
2022/07/14 08:27:22;;;;;;;9.32;2.97;;;;;;;21.51;55.40;101919.00;5034065;28;20029;-76
2022/07/14 08:29:48;;;;;;;13.50;3.10;;;;;;;21.76;54.10;101918.13;5025284;28;20026;-75
2022/07/14 08:32:13;;;;;;;10.07;2.90;;;;;;;21.84;52.70;101920.00;5009738;28;20048;-75
2022/07/14 08:34:39;;;;;;;9.70;3.03;;;;;;;21.92;52.24;101917.34;5007251;28;20040;-78
2022/07/14 08:37:05;;;;;;;8.98;2.83;;;;;;;22.13;53.62;101906.25;5014285;28;20456;-76
2022/07/14 08:39:31;;;;;;;9.43;3.42;;;;;;;22.19;52.76;101908.28;5012715;28;20025;-75
2022/07/14 08:41:59;;;;;;;11.55;3.33;;;;;;;22.06;52.75;101908.75;5013671;28;20057;-77
2022/07/14 08:44:25;;;;;;;12.20;3.67;;;;;;;22.02;52.78;101912.72;5010944;28;20095;-78
2022/07/14 08:46:51;;;;;;;8.27;3.10;;;;;;;21.90;50.48;101916.66;5013605;28;20029;-78
2022/07/14 08:49:17;;;;;;;9.30;3.65;;;;;;;21.86;50.94;101921.50;5014066;28;20030;-81
2022/07/14 08:51:44;;;;;;;14.63;3.50;;;;;;;21.95;51.51;101917.03;5013586;28;20103;-79
2022/07/14 08:54:10;;;;;;;15.88;3.45;;;;;;;22.08;50.73;101911.25;5014083;28;20034;-79
2022/07/14 08:56:39;;;;;;;10.70;3.58;;;;;;;22.04;51.72;101909.91;5013163;28;20196;-79
2022/07/14 08:59:05;;;;;;;9.15;3.40;;;;;;;22.24;51.38;101905.94;5012300;28;20481;-80
2022/07/14 09:01:31;;;;;;;12.88;3.58;;;;;;;22.33;51.45;101910.31;5013097;28;20038;-80
2022/07/14 09:03:56;;;;;;;12.65;3.38;;;;;;;22.54;50.44;101909.00;5022295;28;20013;-78
2022/07/14 09:06:50;;;;;;;12.02;3.33;;;;;;;22.65;51.60;101903.31;5018945;28;20445;-79
2022/07/14 09:09:20;;;;;;;10.90;3.47;;;;;;;22.63;50.19;101908.00;5019657;28;20025;-78
2022/07/14 09:11:59;;;;;;;14.77;3.80;;;;;;;22.70;49.71;101900.97;5032297;28;20064;-79
2022/07/14 09:14:26;;;;;;;10.40;3.17;;;;;;;23.08;50.02;101894.13;5032081;28;20516;-76
2022/07/14 09:16:53;;;;;;;9.30;3.22;;;;;;;23.16;47.57;101902.16;5031377;28;20469;-79
2022/07/14 09:19:20;;;;;;;8.50;3.15;;;;;;;23.05;46.46;101908.72;5010676;28;20040;-81
2022/07/14 09:21:52;;;;;;;9.50;3.13;;;;;;;23.09;47.29;101903.84;5011327;28;20053;-80
2022/07/14 09:24:20;;;;;;;8.20;2.93;;;;;;;23.02;46.62;101906.38;5012486;28;20022;-81
2022/07/14 09:26:48;;;;;;;7.47;2.90;;;;;;;23.03;47.13;101907.22;5025985;28;20290;-81
2022/07/14 09:29:19;;;;;;;9.00;3.25;;;;;;;23.43;47.64;101903.63;5047623;28;20031;-77
2022/07/14 09:31:44;;;;;;;9.77;3.40;;;;;;;23.48;46.15;101895.03;5018333;28;20033;-77
2022/07/14 09:34:23;;;;;;;14.77;3.80;;;;;;;23.53;47.96;101892.66;5029434;28;20039;-77
2022/07/14 09:36:49;;;;;;;10.00;3.58;;;;;;;23.60;45.78;101894.53;5030718;28;20104;-80
2022/07/14 09:39:18;;;;;;;10.43;3.85;;;;;;;23.91;46.46;101885.66;5052725;28;20135;-81
2022/07/14 09:41:53;;;;;;;12.15;2.78;;;;;;;23.99;44.87;101893.69;5051629;28;20025;-79
2022/07/14 09:44:20;;;;;;;7.22;2.40;;;;;;;24.18;44.31;101882.50;5051780;28;20451;-79
2022/07/14 09:46:48;;;;;;;8.57;2.45;;;;;;;24.03;41.86;101886.97;5051474;28;20017;-81
2022/07/14 09:49:18;;;;;;;5.93;2.15;;;;;;;23.91;42.43;101891.03;5041928;28;20087;-83
2022/07/14 09:51:58;;;;;;;8.40;2.30;;;;;;;23.85;44.76;101895.28;5034551;28;20053;-75
2022/07/14 09:54:47;;;;;;;7.72;2.13;;;;;;;23.96;44.95;101894.03;5031189;28;20112;-76
2022/07/14 09:57:12;;;;;;;7.78;2.30;;;;;;;23.91;43.82;101888.34;5024053;28;20044;-77
2022/07/14 09:59:58;;;;;;;6.20;1.88;;;;;;;24.26;42.93;101898.59;5021753;28;20029;-77
2022/07/14 10:02:28;;;;;;;8.32;1.85;;;;;;;24.23;40.75;101896.25;5013823;28;20092;-76
2022/07/14 10:04:55;;;;;;;6.95;1.90;;;;;;;23.83;41.31;101899.16;5012765;28;20109;-76
2022/07/14 10:07:23;;;;;;;8.75;1.92;;;;;;;23.79;39.84;101893.28;5011732;28;20108;-76
2022/07/14 10:09:55;;;;;;;6.68;1.88;;;;;;;24.23;41.87;101888.19;5012088;28;20050;-78
2022/07/14 10:12:25;;;;;;;12.18;2.28;;;;;;;24.05;40.53;101887.63;5017246;28;20437;-76
2022/07/14 10:14:52;;;;;;;5.47;1.85;;;;;;;23.92;42.49;101890.88;5020910;28;20692;-76
2022/07/14 10:17:17;;;;;;;8.15;1.65;;;;;;;24.03;40.77;101895.88;5021758;28;20022;-76
2022/07/14 10:19:44;;;;;;;6.88;1.67;;;;;;;24.24;41.12;101897.94;5020008;28;20018;-76
2022/07/14 10:22:09;;;;;;;5.10;1.50;;;;;;;24.36;41.08;101903.75;5017137;28;20528;-76
2022/07/14 10:24:39;;;;;;;5.97;1.73;;;;;;;24.48;42.10;101901.53;5012894;28;20033;-75
2022/07/14 10:27:06;;;;;;;7.50;1.90;;;;;;;24.50;40.83;101899.50;5032054;28;20025;-76
2022/07/14 10:29:31;;;;;;;7.75;2.10;;;;;;;24.65;41.23;101905.75;5032390;28;20035;-75
2022/07/14 10:32:24;;;;;;;8.00;1.98;;;;;;;24.78;43.41;101908.66;5025287;28;20033;-76
2022/07/14 10:35:18;;;;;;;5.05;1.75;;;;;;;24.54;40.44;101909.72;5021109;28;20080;-80
2022/07/14 10:37:59;;;;;;;4.07;1.85;;;;;;;25.20;40.07;101907.31;5039866;28;20029;-80
2022/07/14 10:40:41;;;;;;;4.20;1.58;;;;;;;25.58;40.69;101900.00;5029357;28;20034;-77
2022/07/14 10:43:18;;;;;;;7.22;2.05;;;;;;;25.78;39.51;101903.00;5030502;28;20030;-81
2022/07/14 10:45:54;;;;;;;6.07;1.70;;;;;;;25.56;39.48;101900.19;5031141;28;20535;-80
2022/07/14 10:48:31;;;;;;;11.18;2.28;;;;;;;25.47;40.57;101901.31;5016392;28;20022;-80
2022/07/14 10:51:18;;;;;;;6.32;1.88;;;;;;;25.55;42.38;101908.47;5010147;28;20064;-78
2022/07/14 10:54:11;;;;;;;6.50;1.63;;;;;;;25.20;38.70;101904.63;5011655;28;20080;-82
2022/07/14 10:56:38;;;;;;;5.57;1.80;;;;;;;24.64;38.16;101898.69;5022075;28;20036;-77
2022/07/14 10:59:25;;;;;;;4.45;1.80;;;;;;;24.66;40.68;101904.75;5029229;28;20355;-76
2022/07/14 11:02:12;;;;;;;7.05;1.67;;;;;;;24.94;41.45;101903.16;5022116;28;20025;-76
2022/07/14 11:05:08;;;;;;;7.97;1.60;;;;;;;25.33;40.09;101902.16;5015532;28;20542;-76
2022/07/14 11:07:48;;;;;;;7.25;1.60;;;;;;;25.46;39.19;101901.50;5019874;28;20049;-75
2022/07/14 11:10:19;;;;;;;7.32;1.65;;;;;;;25.62;39.34;101898.63;5011600;28;20482;-76
2022/07/14 11:12:59;;;;;;;9.90;1.98;;;;;;;25.87;39.41;101897.31;5010779;28;20034;-77
2022/07/14 11:15:41;;;;;;;6.47;1.65;;;;;;;26.08;40.01;101893.84;5010700;28;20025;-75
2022/07/14 11:18:20;;;;;;;4.75;1.70;;;;;;;25.95;38.47;101896.38;5010839;28;20021;-77
2022/07/14 11:20:55;;;;;;;5.63;2.00;;;;;;;25.56;38.07;101900.19;5011171;28;20017;-77
2022/07/14 11:23:24;;;;;;;7.85;1.85;;;;;;;25.71;38.39;101896.69;5019530;28;20025;-78
2022/07/14 11:25:51;;;;;;;7.32;1.50;;;;;;;25.66;39.06;101899.97;5010189;28;20048;-76
2022/07/14 11:28:43;;;;;;;6.05;2.13;;;;;;;25.61;39.35;101892.38;5048118;28;20017;-75
2022/07/14 11:31:10;;;;;;;12.18;2.00;;;;;;;25.41;38.61;101896.66;5050095;28;20024;-77